createdAt,value
2018-08-03T00:00:28.708Z,20.17
2018-08-03T00:02:58.073Z,20.15
2018-08-03T00:05:27.438Z,20.23
2018-08-03T00:07:56.810Z,20.15
2018-08-03T00:10:26.161Z,19.90
2018-08-03T00:12:55.529Z,19.86
2018-08-03T00:15:24.658Z,19.60
2018-08-03T00:17:54.039Z,19.57
2018-08-03T00:20:23.403Z,19.67
2018-08-03T00:22:52.822Z,19.65
2018-08-03T00:25:22.195Z,19.31
2018-08-03T00:27:51.576Z,19.67
2018-08-03T00:30:20.931Z,19.79
2018-08-03T00:32:50.041Z,19.84
2018-08-03T00:35:19.401Z,19.93
2018-08-03T00:37:48.767Z,20.12
2018-08-03T00:40:18.131Z,20.17
2018-08-03T00:42:47.249Z,20.08
2018-08-03T00:45:16.604Z,20.22
2018-08-03T00:47:45.988Z,20.23
2018-08-03T00:50:15.368Z,20.19
2018-08-03T00:52:44.732Z,20.23
2018-08-03T00:55:13.874Z,20.09
2018-08-03T00:57:43.240Z,20.07
2018-08-03T01:00:12.617Z,19.83
2018-08-03T01:02:41.944Z,19.44
2018-08-03T01:05:11.267Z,19.42
2018-08-03T01:07:40.604Z,19.25
2018-08-03T01:10:09.952Z,19.43
2018-08-03T01:12:39.279Z,19.31
2018-08-03T01:15:08.683Z,19.26
2018-08-03T01:17:38.009Z,19.32
2018-08-03T01:20:07.344Z,19.42
2018-08-03T01:22:36.749Z,19.40
2018-08-03T01:25:06.191Z,19.51
2018-08-03T01:27:35.552Z,19.33
2018-08-03T01:30:05.331Z,19.27
2018-08-03T01:32:34.649Z,19.30
2018-08-03T01:35:03.970Z,18.66
2018-08-03T01:37:33.297Z,19.23
2018-08-03T01:40:02.620Z,19.24
2018-08-03T01:42:31.952Z,19.13
2018-08-03T01:45:01.052Z,19.32
2018-08-03T01:47:30.380Z,19.42
2018-08-03T01:49:59.683Z,19.34
2018-08-03T01:52:29.032Z,18.57
2018-08-03T01:54:58.348Z,19.17
2018-08-03T01:57:27.680Z,19.07
2018-08-03T01:59:57.001Z,19.00
2018-08-03T02:02:26.436Z,18.93
2018-08-03T02:04:55.755Z,18.85
2018-08-03T02:07:25.073Z,19.37
2018-08-03T02:09:54.390Z,18.67
2018-08-03T02:12:23.708Z,18.73
2018-08-03T02:14:53.032Z,18.70
2018-08-03T02:17:22.373Z,18.59
2018-08-03T02:19:51.691Z,18.66
2018-08-03T02:22:21.002Z,18.55
2018-08-03T02:24:50.352Z,18.65
2018-08-03T02:27:19.684Z,19.22
2018-08-03T02:29:49.000Z,18.70
2018-08-03T02:32:18.369Z,18.73
2018-08-03T02:34:47.732Z,18.91
2018-08-03T02:37:17.088Z,18.81
2018-08-03T02:39:46.471Z,18.81
2018-08-03T02:42:15.819Z,18.91
2018-08-03T02:44:45.182Z,18.86
2018-08-03T02:47:14.531Z,18.79
2018-08-03T02:49:43.888Z,18.76
2018-08-03T02:52:13.263Z,18.68
2018-08-03T02:54:42.649Z,18.57
2018-08-03T02:57:12.008Z,18.53
2018-08-03T02:59:41.371Z,18.52
2018-08-03T03:02:10.485Z,18.01
2018-08-03T03:04:39.860Z,18.22
2018-08-03T03:07:09.225Z,18.21
2018-08-03T03:09:38.580Z,18.22
2018-08-03T03:12:09.146Z,18.25
2018-08-03T03:14:38.508Z,18.29
2018-08-03T03:17:07.630Z,18.20
2018-08-03T03:19:37.361Z,18.31
2018-08-03T03:22:06.835Z,18.19
2018-08-03T03:24:36.199Z,18.11
2018-08-03T03:27:05.620Z,18.09
2018-08-03T03:29:34.951Z,18.14
2018-08-03T03:32:04.309Z,18.18
2018-08-03T03:34:33.671Z,18.77
2018-08-03T03:37:03.033Z,18.15
2018-08-03T03:39:32.407Z,18.23
2018-08-03T03:42:01.769Z,18.14
2018-08-03T03:44:31.122Z,18.10
2018-08-03T03:47:00.487Z,18.10
2018-08-03T03:49:29.861Z,18.09
2018-08-03T03:51:59.225Z,18.10
2018-08-03T03:54:28.336Z,18.00
2018-08-03T03:56:57.683Z,17.97
2018-08-03T03:59:27.051Z,18.02
2018-08-03T04:01:56.403Z,18.17
2018-08-03T04:04:25.760Z,18.11
2018-08-03T04:06:55.114Z,18.14
2018-08-03T04:09:24.487Z,18.24
2018-08-03T04:11:53.835Z,18.32
2018-08-03T04:14:22.941Z,18.29
2018-08-03T04:16:52.315Z,18.23
2018-08-03T04:19:21.659Z,18.08
2018-08-03T04:21:51.035Z,18.34
2018-08-03T04:24:20.136Z,18.34
2018-08-03T04:26:49.503Z,18.41
2018-08-03T04:29:18.897Z,18.49
2018-08-03T04:31:48.279Z,18.33
2018-08-03T04:34:17.666Z,18.24
2018-08-03T04:36:47.063Z,18.12
2018-08-03T04:39:16.448Z,18.13
2018-08-03T04:41:45.848Z,18.07
2018-08-03T04:44:14.967Z,18.08
2018-08-03T04:46:44.343Z,18.12
2018-08-03T04:49:13.733Z,18.18
2018-08-03T04:51:42.866Z,18.20
2018-08-03T04:54:12.255Z,18.29
2018-08-03T04:56:41.662Z,18.29
2018-08-03T04:59:11.038Z,18.50
2018-08-03T05:01:40.168Z,18.54
2018-08-03T05:04:09.655Z,18.56
2018-08-03T05:06:39.065Z,18.63
2018-08-03T05:09:08.775Z,18.55
2018-08-03T05:11:38.193Z,18.64
2018-08-03T05:14:08.802Z,18.74
2018-08-03T05:16:38.191Z,18.83
2018-08-03T05:19:07.670Z,18.97
2018-08-03T05:21:37.090Z,19.01
2018-08-03T05:24:06.491Z,18.43
2018-08-03T05:26:35.867Z,19.20
2018-08-03T05:29:05.343Z,19.29
2018-08-03T05:31:34.715Z,19.43
2018-08-03T05:34:04.084Z,19.41
2018-08-03T05:36:33.452Z,19.31
2018-08-03T05:39:02.947Z,19.75
2018-08-03T05:41:32.327Z,19.91
2018-08-03T05:44:01.693Z,20.00
2018-08-03T05:46:31.064Z,20.04
2018-08-03T05:49:00.449Z,20.15
2018-08-03T05:51:29.828Z,20.28
2018-08-03T05:53:59.195Z,20.45
2018-08-03T05:56:28.754Z,20.49
2018-08-03T05:58:58.129Z,20.51
2018-08-03T06:01:27.251Z,20.55
2018-08-03T06:03:56.671Z,20.67
2018-08-03T06:06:25.753Z,20.88
2018-08-03T06:08:55.114Z,20.89
2018-08-03T06:11:24.498Z,20.91
2018-08-03T06:13:53.866Z,20.73
2018-08-03T06:16:23.206Z,21.16
2018-08-03T06:18:52.579Z,21.25
2018-08-03T06:21:21.959Z,21.50
2018-08-03T06:23:51.323Z,21.53
2018-08-03T06:26:20.435Z,21.58
2018-08-03T06:28:49.850Z,21.71
2018-08-03T06:31:19.246Z,21.81
2018-08-03T06:33:49.091Z,21.90
2018-08-03T06:36:18.565Z,22.01
2018-08-03T06:38:47.967Z,22.10
2018-08-03T06:41:17.364Z,22.25
2018-08-03T06:43:46.770Z,22.37
2018-08-03T06:46:16.154Z,22.46
2018-08-03T06:48:45.282Z,22.61
2018-08-03T06:51:14.677Z,22.64
2018-08-03T06:53:44.164Z,22.77
2018-08-03T06:56:13.498Z,22.85
2018-08-03T06:58:42.903Z,23.01
2018-08-03T07:01:12.275Z,23.13
2018-08-03T07:03:41.674Z,23.21
2018-08-03T07:06:11.062Z,23.33
2018-08-03T07:08:40.215Z,23.49
2018-08-03T07:11:09.712Z,23.57
2018-08-03T07:13:39.107Z,23.55
2018-08-03T07:16:09.475Z,23.68
2018-08-03T07:18:38.866Z,23.70
2018-08-03T07:21:08.288Z,23.83
2018-08-03T07:23:37.695Z,24.05
2018-08-03T07:26:06.862Z,24.09
2018-08-03T07:28:36.244Z,24.36
2018-08-03T07:31:05.597Z,24.29
2018-08-03T07:33:34.716Z,24.32
2018-08-03T07:36:04.082Z,24.59
2018-08-03T07:38:33.470Z,25.17
2018-08-03T07:41:02.815Z,24.70
2018-08-03T07:43:32.277Z,24.83
2018-08-03T07:46:01.564Z,24.82
2018-08-03T07:48:30.959Z,24.98
2018-08-03T07:51:00.316Z,25.16
2018-08-03T07:53:29.803Z,25.21
2018-08-03T07:55:58.964Z,25.85
2018-08-03T07:58:28.381Z,25.27
2018-08-03T08:00:57.822Z,25.32
2018-08-03T08:03:27.191Z,25.54
2018-08-03T08:05:56.570Z,25.48
2018-08-03T08:08:26.151Z,25.71
2018-08-03T08:10:55.527Z,25.65
2018-08-03T08:13:24.924Z,25.70
2018-08-03T08:15:54.038Z,25.75
2018-08-03T08:18:23.418Z,25.81
2018-08-03T08:20:52.790Z,25.74
2018-08-03T08:23:22.177Z,26.04
2018-08-03T08:25:51.534Z,26.11
2018-08-03T08:28:20.926Z,26.14
2018-08-03T08:30:50.078Z,26.20
2018-08-03T08:33:19.470Z,26.34
2018-08-03T08:35:48.880Z,26.73
2018-08-03T08:38:18.285Z,26.69
2018-08-03T08:40:47.710Z,26.71
2018-08-03T08:43:17.128Z,26.80
2018-08-03T08:45:46.514Z,26.84
2018-08-03T08:48:15.918Z,26.96
2018-08-03T08:50:45.306Z,27.07
2018-08-03T08:53:14.733Z,27.18
2018-08-03T08:55:44.112Z,27.49
2018-08-03T08:58:13.487Z,27.59
2018-08-03T09:00:42.873Z,27.65
2018-08-03T09:03:12.267Z,27.80
2018-08-03T09:05:41.683Z,27.84
2018-08-03T09:08:11.111Z,27.99
2018-08-03T09:10:40.511Z,28.09
2018-08-03T09:13:09.959Z,28.13
2018-08-03T09:15:39.287Z,28.32
2018-08-03T09:18:09.220Z,28.41
2018-08-03T09:20:38.719Z,28.55
2018-08-03T09:23:08.131Z,27.98
2018-08-03T09:25:37.532Z,28.49
2018-08-03T09:28:07.290Z,28.72
2018-08-03T09:30:36.703Z,28.83
2018-08-03T09:33:06.179Z,29.01
2018-08-03T09:35:35.600Z,29.11
2018-08-03T09:38:05.021Z,29.68
2018-08-03T09:40:34.422Z,29.23
2018-08-03T09:43:03.883Z,29.29
2018-08-03T09:45:33.283Z,29.40
2018-08-03T09:48:02.675Z,29.37
2018-08-03T09:50:32.071Z,29.45
2018-08-03T09:53:01.478Z,29.68
2018-08-03T09:55:30.871Z,29.73
2018-08-03T09:58:00.262Z,29.21
2018-08-03T10:00:34.880Z,29.74
2018-08-03T10:03:04.266Z,29.94
2018-08-03T10:05:33.678Z,30.09
2018-08-03T10:08:03.070Z,29.92
2018-08-03T10:10:32.466Z,29.62
2018-08-03T10:13:01.872Z,29.56
2018-08-03T10:15:31.291Z,29.63
2018-08-03T10:18:00.689Z,29.65
2018-08-03T10:20:30.082Z,29.54
2018-08-03T10:22:59.489Z,29.55
2018-08-03T10:25:28.880Z,29.61
2018-08-03T10:27:58.307Z,29.80
2018-08-03T10:30:27.688Z,29.80
2018-08-03T10:32:57.104Z,29.85
2018-08-03T10:35:26.487Z,29.14
2018-08-03T10:37:55.887Z,29.77
2018-08-03T10:40:25.035Z,29.96
2018-08-03T10:42:54.522Z,29.86
2018-08-03T10:45:23.815Z,29.63
2018-08-03T10:47:53.231Z,29.48
2018-08-03T10:50:22.707Z,29.30
2018-08-03T10:52:52.103Z,29.68
2018-08-03T10:55:21.509Z,29.65
2018-08-03T10:57:50.906Z,29.77
2018-08-03T11:00:28.750Z,29.53
2018-08-03T11:02:58.639Z,29.71
2018-08-03T11:05:28.642Z,30.22
2018-08-03T11:07:58.116Z,30.69
2018-08-03T11:10:27.499Z,29.86
2018-08-03T11:12:56.914Z,30.82
2018-08-03T11:15:26.291Z,30.78
2018-08-03T11:17:55.685Z,31.02
2018-08-03T11:20:25.072Z,31.34
2018-08-03T11:22:54.466Z,31.55
2018-08-03T11:25:23.860Z,31.52
2018-08-03T11:27:53.271Z,30.98
2018-08-03T11:30:22.703Z,31.08
2018-08-03T11:32:52.100Z,31.08
2018-08-03T11:35:21.474Z,32.05
2018-08-03T11:37:50.882Z,31.73
2018-08-03T11:40:20.268Z,31.63
2018-08-03T11:42:50.474Z,31.73
2018-08-03T11:45:19.875Z,31.58
2018-08-03T11:47:48.998Z,31.91
2018-08-03T11:50:18.387Z,31.26
2018-08-03T11:52:47.803Z,31.52
2018-08-03T11:55:17.179Z,31.79
2018-08-03T11:57:46.307Z,31.51
2018-08-03T12:00:15.699Z,32.30
2018-08-03T12:02:45.102Z,32.84
2018-08-03T12:05:14.488Z,32.54
2018-08-03T12:07:43.888Z,32.09
2018-08-03T12:10:13.268Z,32.21
2018-08-03T12:12:42.402Z,32.31
2018-08-03T12:15:11.772Z,32.45
2018-08-03T12:17:40.900Z,32.38
2018-08-03T12:20:10.500Z,32.90
2018-08-03T12:22:39.921Z,33.62
2018-08-03T12:25:09.315Z,33.97
2018-08-03T12:27:38.691Z,34.21
2018-08-03T12:30:09.036Z,34.48
2018-08-03T12:32:38.391Z,34.27
2018-08-03T12:35:07.760Z,34.75
2018-08-03T12:37:37.115Z,34.60
2018-08-03T12:40:06.494Z,34.31
2018-08-03T12:42:35.879Z,33.01
2018-08-03T12:45:05.503Z,32.47
2018-08-03T12:47:34.880Z,32.42
2018-08-03T12:50:04.358Z,32.98
2018-08-03T12:52:33.770Z,32.72
2018-08-03T12:55:03.079Z,32.85
2018-08-03T12:57:32.454Z,33.55
2018-08-03T13:00:01.831Z,33.23
2018-08-03T13:02:31.216Z,34.61
2018-08-03T13:05:00.591Z,34.11
2018-08-03T13:07:29.995Z,33.95
2018-08-03T13:09:59.296Z,33.94
2018-08-03T13:12:28.638Z,33.18
2018-08-03T13:14:58.059Z,33.02
2018-08-03T13:17:27.351Z,33.09
2018-08-03T13:19:56.490Z,34.84
2018-08-03T13:22:25.847Z,35.47
2018-08-03T13:24:55.224Z,35.79
2018-08-03T13:27:24.656Z,35.74
2018-08-03T13:29:53.986Z,36.43
2018-08-03T13:32:23.344Z,36.69
2018-08-03T13:34:52.512Z,36.17
2018-08-03T13:37:21.859Z,36.00
2018-08-03T13:39:51.347Z,35.95
2018-08-03T13:42:22.792Z,36.93
2018-08-03T13:44:52.179Z,36.80
2018-08-03T13:47:21.601Z,36.65
2018-08-03T13:49:51.015Z,36.25
2018-08-03T13:52:20.343Z,36.57
2018-08-03T13:54:49.751Z,37.34
2018-08-03T13:57:19.110Z,37.15
2018-08-03T13:59:48.227Z,37.37
2018-08-03T14:02:27.318Z,37.94
2018-08-03T14:04:56.962Z,36.77
2018-08-03T14:07:27.399Z,36.75
2018-08-03T14:09:56.755Z,37.65
2018-08-03T14:12:26.089Z,37.76
2018-08-03T14:14:55.438Z,37.71
2018-08-03T14:17:24.836Z,37.53
2018-08-03T14:19:54.187Z,37.70
2018-08-03T14:22:23.632Z,37.53
2018-08-03T14:24:53.000Z,37.67
2018-08-03T14:27:22.423Z,37.36
2018-08-03T14:29:51.855Z,37.09
2018-08-03T14:32:21.273Z,37.33
2018-08-03T14:34:50.663Z,38.02
2018-08-03T14:37:20.090Z,38.36
2018-08-03T14:39:49.491Z,37.63
2018-08-03T14:42:18.910Z,37.75
2018-08-03T14:44:48.076Z,37.88
2018-08-03T14:47:17.512Z,38.51
2018-08-03T14:49:46.959Z,38.43
2018-08-03T14:52:16.369Z,38.77
2018-08-03T14:54:45.817Z,38.98
2018-08-03T14:57:14.986Z,38.90
2018-08-03T14:59:44.379Z,37.96
2018-08-03T15:02:13.792Z,37.70
2018-08-03T15:04:43.179Z,38.06
2018-08-03T15:07:12.566Z,38.51
2018-08-03T15:09:41.954Z,38.43
2018-08-03T15:12:11.379Z,38.48
2018-08-03T15:14:40.773Z,38.64
2018-08-03T15:17:10.192Z,38.06
2018-08-03T15:19:39.639Z,38.44
2018-08-03T15:22:09.551Z,38.96
2018-08-03T15:24:38.975Z,38.47
2018-08-03T15:27:08.464Z,38.31
2018-08-03T15:29:37.907Z,38.36
2018-08-03T15:32:07.307Z,38.01
2018-08-03T15:34:36.704Z,38.16
2018-08-03T15:37:06.095Z,38.20
2018-08-03T15:39:35.493Z,38.42
2018-08-03T15:42:04.883Z,38.59
2018-08-03T15:44:34.317Z,38.05
2018-08-03T15:47:04.104Z,38.63
2018-08-03T15:49:33.524Z,38.69
2018-08-03T15:52:02.939Z,38.66
2018-08-03T15:54:32.319Z,38.62
2018-08-03T15:57:01.683Z,38.46
2018-08-03T15:59:30.778Z,38.44
2018-08-03T16:01:59.881Z,38.33
2018-08-03T16:04:29.243Z,38.41
2018-08-03T16:06:58.634Z,38.36
2018-08-03T16:09:27.990Z,38.15
2018-08-03T16:11:57.355Z,38.07
2018-08-03T16:14:26.691Z,38.23
2018-08-03T16:16:56.048Z,38.42
2018-08-03T16:19:25.425Z,38.55
2018-08-03T16:21:54.791Z,38.36
2018-08-03T16:24:24.145Z,38.37
2018-08-03T16:26:53.498Z,37.49
2018-08-03T16:29:22.862Z,37.35
2018-08-03T16:31:52.219Z,37.38
2018-08-03T16:34:21.572Z,36.98
2018-08-03T16:36:50.948Z,36.62
2018-08-03T16:39:20.300Z,36.59
2018-08-03T16:41:49.667Z,36.92
2018-08-03T16:44:19.040Z,37.10
2018-08-03T16:46:48.408Z,37.12
2018-08-03T16:49:17.764Z,37.00
2018-08-03T16:51:47.106Z,36.32
2018-08-03T16:54:16.216Z,36.57
2018-08-03T16:56:45.607Z,36.12
2018-08-03T16:59:14.964Z,36.57
2018-08-03T17:01:44.323Z,36.45
2018-08-03T17:04:13.663Z,36.51
2018-08-03T17:06:43.009Z,36.13
2018-08-03T17:09:12.366Z,36.05
2018-08-03T17:54:19.853Z,34.46
2018-08-03T17:56:49.238Z,33.89
2018-08-03T17:59:18.598Z,33.74
2018-08-03T18:01:47.963Z,33.43
2018-08-03T18:04:17.326Z,32.67
2018-08-03T18:06:46.699Z,33.14
2018-08-03T18:09:16.075Z,32.96
2018-08-03T18:11:45.184Z,32.82
2018-08-03T18:14:14.290Z,32.72
2018-08-03T18:16:43.655Z,32.59
2018-08-03T18:19:13.014Z,32.39
2018-08-03T18:21:42.387Z,32.27
2018-08-03T18:24:11.491Z,31.47
2018-08-03T18:26:40.835Z,32.03
2018-08-03T18:29:10.265Z,31.80
2018-08-03T18:31:39.559Z,31.61
2018-08-03T18:34:08.952Z,31.54
2018-08-03T18:36:38.313Z,31.46
2018-08-03T18:39:10.054Z,31.17
2018-08-03T18:41:39.505Z,31.04
2018-08-03T18:44:08.923Z,30.82
2018-08-03T18:46:38.275Z,30.62
2018-08-03T18:49:07.747Z,30.51
2018-08-03T18:51:37.111Z,30.36
2018-08-03T18:54:06.562Z,30.24
2018-08-03T18:56:35.930Z,30.17
2018-08-03T18:59:05.589Z,30.12
2018-08-03T19:01:34.956Z,30.15
2018-08-03T19:04:04.086Z,30.06
2018-08-03T19:06:33.451Z,29.91
2018-08-03T19:09:02.560Z,29.95
2018-08-03T19:11:31.922Z,29.96
2018-08-03T19:14:01.298Z,29.75
2018-08-03T19:16:30.662Z,29.49
2018-08-03T19:19:00.039Z,29.28
2018-08-03T19:21:29.394Z,28.51
2018-08-03T19:23:58.895Z,28.76
2018-08-03T19:26:28.278Z,28.53
2018-08-03T19:28:57.672Z,28.34
2018-08-03T19:31:26.787Z,28.18
2018-08-03T19:33:56.160Z,27.97
2018-08-03T19:36:25.525Z,27.80
2018-08-03T19:38:54.893Z,27.74
2018-08-03T19:41:24.256Z,27.62
2018-08-03T19:43:53.718Z,27.99
2018-08-03T19:46:23.092Z,27.23
2018-08-03T19:48:52.597Z,27.14
2018-08-03T19:51:21.958Z,26.94
2018-08-03T19:53:51.330Z,26.67
2018-08-03T19:56:20.683Z,26.79
2018-08-03T19:58:49.930Z,26.63
2018-08-03T20:01:19.187Z,26.50
2018-08-03T20:03:48.916Z,26.60
2018-08-03T20:06:18.514Z,26.70
2018-08-03T20:08:47.900Z,26.55
2018-08-03T20:11:17.030Z,26.54
2018-08-03T20:13:46.493Z,26.51
2018-08-03T20:16:15.776Z,26.49
2018-08-03T20:18:45.148Z,26.33
2018-08-03T20:21:14.511Z,26.33
2018-08-03T20:23:43.886Z,26.36
2018-08-03T20:26:13.243Z,26.25
2018-08-03T20:28:42.656Z,26.20
2018-08-03T20:31:12.068Z,26.13
2018-08-03T20:33:41.455Z,26.11
2018-08-03T20:36:10.855Z,26.21
2018-08-03T20:38:40.243Z,26.07
2018-08-03T20:41:09.686Z,26.06
2018-08-03T20:43:39.034Z,25.94
2018-08-03T20:46:08.738Z,25.80
2018-08-03T20:48:38.126Z,25.60
2018-08-03T20:51:07.515Z,25.52
2018-08-03T20:53:36.902Z,25.96
2018-08-03T20:56:06.410Z,25.29
2018-08-03T20:58:35.806Z,25.26
2018-08-03T21:01:05.210Z,25.19
2018-08-03T21:03:34.606Z,24.93
2018-08-03T21:06:04.179Z,25.14
2018-08-03T21:08:33.594Z,25.09
2018-08-03T21:11:03.004Z,25.07
2018-08-03T21:13:32.390Z,24.99
2018-08-03T21:16:01.789Z,24.96
2018-08-03T21:18:31.195Z,24.77
2018-08-03T21:21:00.595Z,24.78
2018-08-03T21:23:29.994Z,24.63
2018-08-03T21:25:59.403Z,24.58
2018-08-03T21:28:28.784Z,24.45
2018-08-03T21:30:58.159Z,24.19
2018-08-03T21:33:27.272Z,24.13
2018-08-03T21:35:56.638Z,23.86
2018-08-03T21:38:25.998Z,23.89
2018-08-03T21:40:55.368Z,23.84
2018-08-03T21:43:24.728Z,23.89
2018-08-03T21:45:54.088Z,23.88
2018-08-03T21:48:23.456Z,24.00
2018-08-03T21:50:52.810Z,23.88
2018-08-03T21:53:22.174Z,23.83
2018-08-03T21:55:51.294Z,23.85
2018-08-03T21:58:20.670Z,23.68
2018-08-03T22:00:50.044Z,22.88
2018-08-03T22:03:19.394Z,23.18
2018-08-03T22:05:48.755Z,23.18
2018-08-03T22:08:18.126Z,23.25
2018-08-03T22:10:47.498Z,23.28
2018-08-03T22:13:16.874Z,23.25
2018-08-03T22:15:46.007Z,23.19
2018-08-03T22:18:15.388Z,22.94
2018-08-03T22:20:44.763Z,22.87
2018-08-03T22:23:14.129Z,22.67
2018-08-03T22:25:43.487Z,23.03
2018-08-03T22:28:12.622Z,23.04
2018-08-03T22:30:42.011Z,23.23
2018-08-03T22:33:11.423Z,23.11
2018-08-03T22:35:40.870Z,22.90
2018-08-03T22:38:10.274Z,22.72
2018-08-03T22:40:39.678Z,22.92
2018-08-03T22:43:09.164Z,22.57
2018-08-03T22:45:38.612Z,22.47
2018-08-03T22:48:08.050Z,22.51
2018-08-03T22:50:37.831Z,22.43
2018-08-03T22:53:07.312Z,22.51
2018-08-03T22:55:36.443Z,21.88
2018-08-03T22:58:05.923Z,22.52
2018-08-03T23:00:35.051Z,22.43
2018-08-03T23:03:04.414Z,22.41
2018-08-03T23:05:33.810Z,22.53
2018-08-03T23:08:02.958Z,22.63
2018-08-03T23:10:32.286Z,22.80
2018-08-03T23:13:01.655Z,22.60
2018-08-03T23:15:31.044Z,22.29
2018-08-03T23:18:00.412Z,22.18
2018-08-03T23:20:29.526Z,26.12
2018-08-03T23:22:58.907Z,21.84
2018-08-03T23:25:28.022Z,21.78
2018-08-03T23:27:57.742Z,21.77
2018-08-03T23:30:27.110Z,21.81
2018-08-03T23:32:56.234Z,21.76
2018-08-03T23:35:25.654Z,21.78
2018-08-03T23:37:55.021Z,21.80
2018-08-03T23:40:24.130Z,21.68
2018-08-03T23:42:53.516Z,21.62
2018-08-03T23:45:22.635Z,22.18
2018-08-03T23:47:52.014Z,21.41
2018-08-03T23:50:21.126Z,21.39
2018-08-03T23:52:50.558Z,21.36
2018-08-03T23:55:19.930Z,21.35
2018-08-03T23:57:49.299Z,21.37
